createdAt,value
2022-12-20T05:00:15.864Z,41.80
2022-12-20T05:02:47.663Z,38.50
2022-12-20T05:05:19.695Z,45.80
2022-12-20T05:07:53.771Z,39.30
2022-12-20T05:10:22.688Z,42.50
2022-12-20T05:12:52.602Z,42.10
2022-12-20T05:15:35.710Z,39.10
2022-12-20T05:18:05.742Z,41.30
2022-12-20T05:20:46.219Z,46.00
2022-12-20T05:23:34.799Z,41.90
2022-12-20T05:26:18.995Z,48.50
2022-12-20T05:28:48.999Z,43.90
2022-12-20T05:31:18.062Z,41.90
2022-12-20T05:33:47.259Z,41.60
2022-12-20T05:36:17.643Z,43.20
2022-12-20T05:38:48.347Z,50.90
2022-12-20T05:41:19.492Z,49.60
2022-12-20T05:43:50.286Z,43.50
2022-12-20T05:46:19.471Z,50.00
2022-12-20T05:48:57.774Z,42.90
2022-12-20T05:51:26.874Z,50.90
2022-12-20T05:54:02.180Z,46.10
2022-12-20T05:56:54.636Z,65.40
2022-12-20T05:59:27.424Z,59.60
2022-12-20T06:01:57.487Z,73.10
2022-12-20T06:04:27.479Z,68.40
2022-12-20T06:06:56.587Z,80.30
2022-12-20T06:09:25.952Z,75.20
2022-12-20T06:12:06.994Z,83.70
2022-12-20T06:14:36.279Z,71.60
2022-12-20T06:17:05.619Z,79.90
2022-12-20T06:19:34.853Z,74.10
2022-12-20T06:22:04.652Z,62.40
2022-12-20T06:24:48.247Z,59.30
2022-12-20T06:27:22.919Z,56.10
2022-12-20T06:30:00.830Z,51.90
2022-12-20T06:32:35.837Z,46.90
2022-12-20T06:35:05.627Z,49.20
2022-12-20T06:37:34.570Z,203.10
2022-12-20T06:40:04.760Z,77.30
2022-12-20T06:42:33.405Z,67.80
2022-12-20T06:45:01.604Z,56.70
2022-12-20T06:47:30.581Z,63.20
2022-12-20T06:49:59.224Z,61.40
2022-12-20T06:52:28.504Z,72.00
2022-12-20T06:54:56.920Z,56.40
2022-12-20T06:57:25.474Z,57.50
2022-12-20T06:59:54.677Z,56.60
2022-12-20T07:02:25.330Z,70.30
2022-12-20T07:04:56.801Z,51.00
2022-12-20T07:07:25.674Z,60.60
2022-12-20T07:09:53.713Z,61.10
2022-12-20T07:12:22.398Z,69.60
2022-12-20T07:14:50.605Z,65.90
2022-12-20T07:17:18.676Z,67.20
2022-12-20T07:19:51.043Z,76.20
2022-12-20T07:22:19.684Z,73.40
2022-12-20T07:24:51.482Z,77.90
2022-12-20T07:29:48.348Z,60.40
2022-12-20T07:32:20.416Z,72.00
2022-12-20T07:34:54.045Z,67.90
2022-12-20T07:37:23.217Z,66.40
2022-12-20T07:39:52.073Z,74.00
2022-12-20T07:42:20.776Z,54.20
2022-12-20T07:44:52.520Z,50.20
2022-12-20T07:47:21.678Z,51.20
2022-12-20T07:49:50.687Z,52.80
2022-12-20T07:52:23.638Z,66.90
2022-12-20T07:54:58.061Z,68.80
2022-12-20T07:57:32.871Z,70.50
2022-12-20T08:00:04.038Z,60.60
2022-12-20T08:03:03.881Z,53.20
2022-12-20T08:05:36.661Z,53.80
2022-12-20T08:08:06.754Z,55.80
2022-12-20T08:10:38.982Z,64.60
2022-12-20T08:13:08.554Z,57.30
2022-12-20T08:15:38.210Z,64.40
2022-12-20T08:18:07.230Z,49.50
2022-12-20T08:20:35.402Z,55.10
2022-12-20T08:23:05.500Z,54.50
2022-12-20T08:25:41.808Z,65.50
2022-12-20T08:28:11.049Z,269.00
2022-12-20T08:30:40.059Z,204.30
2022-12-20T08:33:08.791Z,110.90
2022-12-20T08:35:37.449Z,66.00
2022-12-20T08:38:06.294Z,58.00
2022-12-20T08:40:34.925Z,53.60
2022-12-20T08:43:09.754Z,50.90
2022-12-20T08:45:38.687Z,55.40
2022-12-20T08:48:07.843Z,57.10
2022-12-20T08:50:36.912Z,63.90
2022-12-20T08:53:05.883Z,63.90
2022-12-20T08:55:34.338Z,64.00
2022-12-20T08:58:03.167Z,83.50
2022-12-20T09:00:32.228Z,105.80
2022-12-20T09:03:01.430Z,132.80
2022-12-20T09:05:31.339Z,102.00
2022-12-20T09:08:00.662Z,111.70
2022-12-20T09:10:29.587Z,87.10
2022-12-20T09:13:00.836Z,79.00
2022-12-20T09:15:29.831Z,91.90
2022-12-20T09:18:00.888Z,139.00
2022-12-20T09:20:31.107Z,185.00
2022-12-20T09:23:01.232Z,153.50
2022-12-20T09:25:29.960Z,155.50
2022-12-20T09:27:59.904Z,123.30
2022-12-20T09:30:28.937Z,136.40
2022-12-20T09:32:57.509Z,105.40
2022-12-20T09:35:38.121Z,129.50
2022-12-20T09:38:07.096Z,171.20
2022-12-20T09:40:39.158Z,142.10
2022-12-20T09:43:10.980Z,240.30
2022-12-20T09:45:40.169Z,105.10
2022-12-20T09:48:31.483Z,77.00
2022-12-20T09:51:19.145Z,60.80
2022-12-20T09:54:16.185Z,74.10
2022-12-20T09:56:52.475Z,68.20
2022-12-20T09:59:22.011Z,66.00
2022-12-20T10:01:51.466Z,67.40
2022-12-20T10:04:28.220Z,69.00
2022-12-20T10:07:39.853Z,99.90
2022-12-20T10:10:29.266Z,87.70
2022-12-20T10:13:01.206Z,95.90
2022-12-20T10:15:38.428Z,98.30
2022-12-20T10:18:07.335Z,82.20
2022-12-20T10:20:55.638Z,86.20
2022-12-20T10:23:39.582Z,91.70
2022-12-20T10:26:13.924Z,91.40
2022-12-20T10:28:42.488Z,104.60
2022-12-20T10:31:16.532Z,139.70
2022-12-20T10:33:46.615Z,90.40
2022-12-20T10:36:42.571Z,102.50
2022-12-20T10:39:11.703Z,108.60
2022-12-20T10:41:43.796Z,110.90
2022-12-20T10:44:21.086Z,84.70
2022-12-20T10:47:02.064Z,75.40
2022-12-20T10:49:34.734Z,57.60
2022-12-20T10:52:10.194Z,61.70
2022-12-20T10:54:44.232Z,98.80
2022-12-20T10:57:22.851Z,77.30
2022-12-20T10:59:55.237Z,85.10
2022-12-20T11:02:40.015Z,77.80
2022-12-20T11:05:11.354Z,81.80
2022-12-20T11:08:34.602Z,68.00
2022-12-20T11:11:19.573Z,102.00
2022-12-20T11:13:52.824Z,111.50
2022-12-20T11:16:27.619Z,72.10
2022-12-20T11:19:40.030Z,76.90
2022-12-20T11:22:24.771Z,76.50
2022-12-20T11:25:21.557Z,96.00
2022-12-20T11:27:56.799Z,102.60
2022-12-20T11:30:43.781Z,81.50
2022-12-20T11:33:16.247Z,99.20
2022-12-20T11:35:57.438Z,72.70
2022-12-20T11:38:47.128Z,62.60
2022-12-20T11:41:53.011Z,76.00
2022-12-20T11:44:53.882Z,65.80
2022-12-20T11:47:52.955Z,65.90
2022-12-20T11:50:40.770Z,71.10
2022-12-20T11:53:21.497Z,67.10
2022-12-20T11:55:54.769Z,62.50
2022-12-20T11:58:52.462Z,64.20
2022-12-20T12:01:27.751Z,70.00
2022-12-20T12:03:56.354Z,76.10
2022-12-20T12:06:30.302Z,69.20
2022-12-20T12:09:13.810Z,72.60
2022-12-20T12:12:08.491Z,63.10
2022-12-20T12:15:00.593Z,68.50
2022-12-20T12:17:51.687Z,51.70
2022-12-20T12:20:42.296Z,65.50
2022-12-20T12:23:26.955Z,67.80
2022-12-20T12:25:55.980Z,72.90
2022-12-20T12:28:25.087Z,65.00
2022-12-20T12:31:01.227Z,62.50
2022-12-20T12:33:39.183Z,63.30
2022-12-20T12:36:08.943Z,59.80
2022-12-20T12:39:06.034Z,59.70
2022-12-20T12:41:47.834Z,69.20
2022-12-20T12:44:20.932Z,75.40
2022-12-20T12:47:05.879Z,64.70
2022-12-20T12:49:36.860Z,74.30
2022-12-20T12:52:07.445Z,87.00
2022-12-20T12:54:41.189Z,83.50
2022-12-20T12:57:09.571Z,63.70
2022-12-20T12:59:38.469Z,62.50
2022-12-20T13:02:14.118Z,70.30
2022-12-20T13:05:26.253Z,69.40
2022-12-20T13:07:55.706Z,61.40
2022-12-20T13:10:29.747Z,55.30
2022-12-20T13:13:03.341Z,75.60
2022-12-20T13:15:33.157Z,65.30
2022-12-20T13:18:18.511Z,63.00
2022-12-20T13:21:40.456Z,64.20
2022-12-20T13:25:14.377Z,72.20
2022-12-20T13:27:43.611Z,68.50
2022-12-20T13:30:13.057Z,59.00
2022-12-20T13:32:48.172Z,66.70
2022-12-20T13:35:29.905Z,79.90
2022-12-20T13:38:14.535Z,66.30
2022-12-20T13:41:01.770Z,120.90
2022-12-20T13:43:43.102Z,78.80
2022-12-20T13:46:11.706Z,88.30
2022-12-20T13:48:53.349Z,70.20
2022-12-20T13:51:24.599Z,68.90
2022-12-20T13:54:02.314Z,59.40
2022-12-20T13:56:48.597Z,59.80
2022-12-20T13:59:32.753Z,62.50
2022-12-20T14:04:46.743Z,94.50
2022-12-20T14:07:18.412Z,96.90
2022-12-20T14:09:56.207Z,113.40
2022-12-20T14:12:28.776Z,108.20
2022-12-20T14:15:03.101Z,86.20
2022-12-20T14:17:33.997Z,87.60
2022-12-20T14:20:07.740Z,85.30
2022-12-20T14:25:08.421Z,92.60
2022-12-20T14:27:39.107Z,103.00
2022-12-20T14:30:26.673Z,113.70
2022-12-20T14:32:57.559Z,102.00
2022-12-20T14:35:28.302Z,108.20
2022-12-20T14:38:00.648Z,94.30
2022-12-20T14:40:31.039Z,93.10
2022-12-20T14:43:16.077Z,91.40
2022-12-20T14:45:45.106Z,89.20
2022-12-20T14:48:17.462Z,73.10
2022-12-20T14:50:54.291Z,69.80
2022-12-20T14:53:29.149Z,65.00
2022-12-20T14:55:58.343Z,99.90
2022-12-20T14:58:34.684Z,110.30
2022-12-20T15:01:20.445Z,103.60
2022-12-20T15:03:56.822Z,104.90
2022-12-20T15:06:32.542Z,108.60
2022-12-20T15:09:02.023Z,115.00
2022-12-20T15:11:31.489Z,130.50
2022-12-20T15:14:01.427Z,102.40
2022-12-20T15:16:31.552Z,86.90
2022-12-20T15:19:02.566Z,72.50
2022-12-20T15:21:57.890Z,80.10
2022-12-20T15:24:28.625Z,86.10
2022-12-20T15:26:56.918Z,86.20
2022-12-20T15:29:28.456Z,84.60
2022-12-20T15:32:24.832Z,90.80
2022-12-20T15:34:53.680Z,98.10
2022-12-20T15:37:22.600Z,120.70
2022-12-20T15:39:52.018Z,98.40
2022-12-20T15:42:23.632Z,96.10
2022-12-20T15:44:52.975Z,96.90
2022-12-20T15:47:21.849Z,118.80
2022-12-20T15:49:50.858Z,105.10
2022-12-20T15:52:22.222Z,98.90
2022-12-20T15:54:50.922Z,101.30
2022-12-20T15:57:21.476Z,113.10
2022-12-20T16:00:01.809Z,92.10
2022-12-20T16:02:39.892Z,81.20
2022-12-20T16:05:13.895Z,87.70
2022-12-20T16:07:42.712Z,96.80
2022-12-20T16:10:15.730Z,80.70
2022-12-20T16:12:45.863Z,95.90
2022-12-20T16:15:22.511Z,142.50
2022-12-20T16:17:51.808Z,92.50
2022-12-20T16:20:20.759Z,94.60
2022-12-20T16:22:49.997Z,98.50
2022-12-20T16:25:31.821Z,120.50
2022-12-20T16:28:00.725Z,113.70
2022-12-20T16:30:29.151Z,87.00
2022-12-20T16:32:59.555Z,120.00
2022-12-20T16:35:34.746Z,86.60
2022-12-20T16:38:05.143Z,84.40
2022-12-20T16:40:35.007Z,69.70
2022-12-20T16:43:04.126Z,111.90
2022-12-20T16:45:35.174Z,87.60
2022-12-20T16:48:04.200Z,112.90
2022-12-20T16:50:33.531Z,95.30
2022-12-20T16:53:02.845Z,101.10
2022-12-20T16:55:39.316Z,87.80
2022-12-20T16:58:08.518Z,106.30
2022-12-20T17:00:38.420Z,91.30
2022-12-20T17:03:07.523Z,91.70
2022-12-20T17:05:38.131Z,98.00
2022-12-20T17:10:53.776Z,77.20
2022-12-20T17:13:22.504Z,90.40
2022-12-20T17:15:51.396Z,96.80
2022-12-20T17:18:20.203Z,109.60
2022-12-20T17:20:49.190Z,88.10
2022-12-20T17:23:17.696Z,83.60
2022-12-20T17:25:52.088Z,94.70
2022-12-20T17:28:26.731Z,98.30
2022-12-20T17:30:55.437Z,113.10
2022-12-20T17:33:24.129Z,109.50
2022-12-20T17:35:53.062Z,102.20
2022-12-20T17:38:23.230Z,161.80
2022-12-20T17:40:51.419Z,81.70
2022-12-20T17:43:19.811Z,82.90
2022-12-20T17:45:48.239Z,82.30
2022-12-20T17:48:17.091Z,73.10
2022-12-20T17:50:45.903Z,81.40
2022-12-20T17:53:15.077Z,74.10
2022-12-20T17:55:43.122Z,68.30
2022-12-20T17:58:12.382Z,77.50
2022-12-20T18:00:43.973Z,70.70
2022-12-20T18:03:38.003Z,65.30
2022-12-20T18:06:08.256Z,70.70
2022-12-20T18:08:37.364Z,76.00
2022-12-20T18:11:06.976Z,90.80
2022-12-20T18:13:35.819Z,87.90
2022-12-20T18:16:08.523Z,94.60
2022-12-20T18:18:38.342Z,98.80
2022-12-20T18:21:15.496Z,81.10
2022-12-20T18:23:46.017Z,67.40
2022-12-20T18:26:29.630Z,78.90
2022-12-20T18:29:02.984Z,71.00
2022-12-20T18:31:34.090Z,72.80
2022-12-20T18:34:04.206Z,66.00
2022-12-20T18:36:35.667Z,67.30
2022-12-20T18:39:06.574Z,76.50
2022-12-20T18:41:35.738Z,78.00
2022-12-20T18:44:06.537Z,79.80
2022-12-20T18:46:34.843Z,75.80
2022-12-20T18:49:04.321Z,108.60
2022-12-20T18:51:37.918Z,97.50
2022-12-20T18:56:37.761Z,109.50
2022-12-20T18:59:11.945Z,116.10
2022-12-20T19:01:42.660Z,114.90
2022-12-20T19:04:11.854Z,107.60
2022-12-20T19:06:40.381Z,86.30
2022-12-20T19:09:11.921Z,85.80
2022-12-20T19:11:40.484Z,83.90
2022-12-20T19:14:11.107Z,86.20
2022-12-20T19:16:40.339Z,99.50
2022-12-20T19:19:09.239Z,135.90
2022-12-20T19:21:40.138Z,88.20
2022-12-20T19:24:10.046Z,70.50
2022-12-20T19:26:39.893Z,69.30
2022-12-20T19:29:08.695Z,62.80
2022-12-20T19:31:38.879Z,71.30
2022-12-20T19:34:11.721Z,76.50
2022-12-20T19:36:43.265Z,57.10
2022-12-20T19:39:20.699Z,54.40
2022-12-20T19:42:21.511Z,55.20
2022-12-20T19:44:40.641Z,73.00
2022-12-20T19:47:08.874Z,74.40
2022-12-20T19:49:37.136Z,53.90
2022-12-20T19:52:07.189Z,62.60
2022-12-20T19:54:35.720Z,69.60
2022-12-20T19:57:04.864Z,68.60
2022-12-20T19:59:33.178Z,77.90
2022-12-20T20:02:01.950Z,74.80
2022-12-20T20:04:31.054Z,77.10
2022-12-20T20:06:59.398Z,81.50
2022-12-20T20:09:28.421Z,68.60
2022-12-20T20:11:56.770Z,59.90
2022-12-20T20:14:24.832Z,84.80
2022-12-20T20:16:53.365Z,70.00
2022-12-20T20:19:21.533Z,64.30
2022-12-20T20:21:50.195Z,69.50
2022-12-20T20:24:19.401Z,72.70
2022-12-20T20:26:48.921Z,83.50
2022-12-20T20:29:20.998Z,82.60
2022-12-20T20:31:49.328Z,76.10
2022-12-20T20:34:17.538Z,69.60
2022-12-20T20:36:45.645Z,74.90
2022-12-20T20:39:13.962Z,91.70
2022-12-20T20:41:43.015Z,98.80
2022-12-20T20:44:13.115Z,174.90
2022-12-20T20:46:41.332Z,198.20
2022-12-20T20:49:10.344Z,169.60
2022-12-20T20:51:38.872Z,139.40
2022-12-20T20:54:07.051Z,147.10
2022-12-20T20:56:36.196Z,220.70
2022-12-20T20:59:08.055Z,199.10
2022-12-20T21:01:38.844Z,150.60
2022-12-20T21:04:07.219Z,152.70
2022-12-20T21:06:41.032Z,140.00
2022-12-20T21:09:12.699Z,119.90
2022-12-20T21:11:41.489Z,177.40
2022-12-20T21:14:11.781Z,153.30
2022-12-20T21:16:40.867Z,182.20
2022-12-20T21:19:09.765Z,116.10
2022-12-20T21:21:38.800Z,103.60
2022-12-20T21:24:07.242Z,103.70
2022-12-20T21:26:36.393Z,123.60
2022-12-20T21:29:04.658Z,185.50
2022-12-20T21:31:32.844Z,149.10
2022-12-20T21:34:01.002Z,127.80
2022-12-20T21:36:29.109Z,108.10
2022-12-20T21:38:58.541Z,86.10
2022-12-20T21:41:29.041Z,184.30
2022-12-20T21:44:01.404Z,288.30
2022-12-20T21:46:32.233Z,128.10
2022-12-20T21:49:00.415Z,110.30
2022-12-20T21:51:30.638Z,83.00
2022-12-20T21:54:01.320Z,129.20
2022-12-20T21:56:32.242Z,217.50
2022-12-20T21:59:00.917Z,174.10
2022-12-20T22:01:30.070Z,117.30
2022-12-20T22:04:03.649Z,99.20
2022-12-20T22:06:32.647Z,82.30
2022-12-20T22:09:02.989Z,120.10
2022-12-20T22:11:31.525Z,197.70
2022-12-20T22:14:00.353Z,156.50
2022-12-20T22:16:32.472Z,115.90
2022-12-20T22:19:03.032Z,86.90
2022-12-20T22:21:33.805Z,81.50
2022-12-20T22:24:02.401Z,169.60
2022-12-20T22:26:33.940Z,160.60
2022-12-20T22:29:06.283Z,130.60
2022-12-20T22:31:36.649Z,91.70
2022-12-20T22:34:05.882Z,97.90
2022-12-20T22:36:34.913Z,119.30
2022-12-20T22:39:03.880Z,106.20
2022-12-20T22:41:37.159Z,106.70
2022-12-20T22:44:06.038Z,85.90
2022-12-20T22:49:21.882Z,120.80
2022-12-20T22:52:02.723Z,112.90
2022-12-20T22:54:36.648Z,68.60
2022-12-20T22:57:05.651Z,63.00
2022-12-20T22:59:37.361Z,59.40
2022-12-20T23:02:06.437Z,62.10
2022-12-20T23:04:35.682Z,83.60
2022-12-20T23:07:05.601Z,72.60
2022-12-20T23:09:34.856Z,74.90
2022-12-20T23:12:22.143Z,65.70
2022-12-20T23:15:26.596Z,71.30
2022-12-20T23:17:54.917Z,74.50
2022-12-20T23:20:43.518Z,58.40
2022-12-20T23:23:12.733Z,56.00
2022-12-20T23:25:44.016Z,47.50
2022-12-20T23:28:12.874Z,50.50
2022-12-20T23:30:41.776Z,56.00
2022-12-20T23:33:10.759Z,49.80
2022-12-20T23:35:39.990Z,50.30
2022-12-20T23:38:08.950Z,48.20
2022-12-20T23:40:40.817Z,53.00
2022-12-20T23:43:09.617Z,48.10
2022-12-20T23:45:38.723Z,49.40
2022-12-20T23:48:07.065Z,52.70
2022-12-20T23:50:36.085Z,53.20
2022-12-20T23:53:05.056Z,54.90
2022-12-20T23:55:34.178Z,50.90
2022-12-20T23:58:03.148Z,49.00
